sensor_id;sensor_type;location;lat;lon;timestamp;temperature;humidity
53978;DHT22;39886;47.984;-1.586;2022-09-09T00:00:20;23.40;62.80
53978;DHT22;39886;47.984;-1.586;2022-09-09T00:05:35;23.40;62.80
53978;DHT22;39886;47.984;-1.586;2022-09-09T00:08:03;23.40;62.80
53978;DHT22;39886;47.984;-1.586;2022-09-09T00:10:36;23.40;62.80
53978;DHT22;39886;47.984;-1.586;2022-09-09T00:18:55;23.40;62.90
53978;DHT22;39886;47.984;-1.586;2022-09-09T00:21:36;23.30;62.90
53978;DHT22;39886;47.984;-1.586;2022-09-09T00:24:24;23.30;62.90
53978;DHT22;39886;47.984;-1.586;2022-09-09T00:26:59;23.30;62.90
53978;DHT22;39886;47.984;-1.586;2022-09-09T00:32:12;23.30;62.90
53978;DHT22;39886;47.984;-1.586;2022-09-09T00:35:13;23.30;63.00
53978;DHT22;39886;47.984;-1.586;2022-09-09T00:37:42;23.30;63.00
53978;DHT22;39886;47.984;-1.586;2022-09-09T00:40:27;23.30;63.00
53978;DHT22;39886;47.984;-1.586;2022-09-09T00:48:43;23.30;63.00
53978;DHT22;39886;47.984;-1.586;2022-09-09T00:56:59;23.30;63.00
53978;DHT22;39886;47.984;-1.586;2022-09-09T00:59:47;23.30;63.00
53978;DHT22;39886;47.984;-1.586;2022-09-09T01:02:39;23.30;63.00
53978;DHT22;39886;47.984;-1.586;2022-09-09T01:05:20;23.30;63.00
53978;DHT22;39886;47.984;-1.586;2022-09-09T01:07:48;23.20;63.00
53978;DHT22;39886;47.984;-1.586;2022-09-09T01:10:50;23.30;63.00
53978;DHT22;39886;47.984;-1.586;2022-09-09T01:13:26;23.20;63.00
53978;DHT22;39886;47.984;-1.586;2022-09-09T01:15:59;23.30;63.10
53978;DHT22;39886;47.984;-1.586;2022-09-09T01:18:43;23.30;63.20
53978;DHT22;39886;47.984;-1.586;2022-09-09T01:24:27;23.20;63.10
53978;DHT22;39886;47.984;-1.586;2022-09-09T01:27:00;23.20;63.20
53978;DHT22;39886;47.984;-1.586;2022-09-09T01:29:26;23.20;63.20
53978;DHT22;39886;47.984;-1.586;2022-09-09T01:31:58;23.20;63.20
53978;DHT22;39886;47.984;-1.586;2022-09-09T01:34:29;23.20;63.20
53978;DHT22;39886;47.984;-1.586;2022-09-09T01:37:07;23.20;63.20
53978;DHT22;39886;47.984;-1.586;2022-09-09T01:39:36;23.20;63.20
53978;DHT22;39886;47.984;-1.586;2022-09-09T01:42:05;23.20;63.20
53978;DHT22;39886;47.984;-1.586;2022-09-09T01:44:32;23.20;63.20
53978;DHT22;39886;47.984;-1.586;2022-09-09T01:46:58;23.20;63.30
53978;DHT22;39886;47.984;-1.586;2022-09-09T01:49:24;23.20;63.30
53978;DHT22;39886;47.984;-1.586;2022-09-09T01:51:52;23.20;63.30
53978;DHT22;39886;47.984;-1.586;2022-09-09T01:54:20;23.20;63.30
53978;DHT22;39886;47.984;-1.586;2022-09-09T02:02:36;23.20;63.30
53978;DHT22;39886;47.984;-1.586;2022-09-09T02:08:11;23.20;63.30
53978;DHT22;39886;47.984;-1.586;2022-09-09T02:10:46;23.20;63.40
53978;DHT22;39886;47.984;-1.586;2022-09-09T02:13:19;23.20;63.40
53978;DHT22;39886;47.984;-1.586;2022-09-09T02:18:44;23.10;63.30
53978;DHT22;39886;47.984;-1.586;2022-09-09T02:21:13;23.10;63.30
53978;DHT22;39886;47.984;-1.586;2022-09-09T02:23:41;23.20;63.40
53978;DHT22;39886;47.984;-1.586;2022-09-09T02:26:09;23.10;63.40
53978;DHT22;39886;47.984;-1.586;2022-09-09T02:28:36;23.10;63.40
53978;DHT22;39886;47.984;-1.586;2022-09-09T02:31:03;23.10;63.40
53978;DHT22;39886;47.984;-1.586;2022-09-09T02:33:37;23.10;63.40
53978;DHT22;39886;47.984;-1.586;2022-09-09T02:36:05;23.10;63.40
53978;DHT22;39886;47.984;-1.586;2022-09-09T02:38:36;23.10;63.50
53978;DHT22;39886;47.984;-1.586;2022-09-09T02:41:03;23.10;63.40
53978;DHT22;39886;47.984;-1.586;2022-09-09T02:43:35;23.10;63.40
53978;DHT22;39886;47.984;-1.586;2022-09-09T02:46:08;23.10;63.40
53978;DHT22;39886;47.984;-1.586;2022-09-09T02:48:51;23.10;63.50
53978;DHT22;39886;47.984;-1.586;2022-09-09T02:51:45;23.10;63.50
53978;DHT22;39886;47.984;-1.586;2022-09-09T02:54:27;23.10;63.50
53978;DHT22;39886;47.984;-1.586;2022-09-09T02:57:16;23.10;63.50
53978;DHT22;39886;47.984;-1.586;2022-09-09T02:59:45;23.00;63.40
53978;DHT22;39886;47.984;-1.586;2022-09-09T03:02:12;23.00;63.50
53978;DHT22;39886;47.984;-1.586;2022-09-09T03:04:38;23.10;63.50
53978;DHT22;39886;47.984;-1.586;2022-09-09T03:07:05;23.00;63.50
53978;DHT22;39886;47.984;-1.586;2022-09-09T03:09:31;23.00;63.50
53978;DHT22;39886;47.984;-1.586;2022-09-09T03:12:00;23.00;63.50
53978;DHT22;39886;47.984;-1.586;2022-09-09T03:14:25;23.00;63.50
53978;DHT22;39886;47.984;-1.586;2022-09-09T03:16:52;23.00;63.50
53978;DHT22;39886;47.984;-1.586;2022-09-09T03:19:18;23.00;63.50
53978;DHT22;39886;47.984;-1.586;2022-09-09T03:21:45;23.00;63.50
53978;DHT22;39886;47.984;-1.586;2022-09-09T03:24:11;23.00;63.50
53978;DHT22;39886;47.984;-1.586;2022-09-09T03:26:37;23.00;63.50
53978;DHT22;39886;47.984;-1.586;2022-09-09T03:29:04;23.00;63.50
53978;DHT22;39886;47.984;-1.586;2022-09-09T03:31:32;23.00;63.50
53978;DHT22;39886;47.984;-1.586;2022-09-09T03:33:58;23.00;63.50
53978;DHT22;39886;47.984;-1.586;2022-09-09T03:36:27;23.00;63.50
53978;DHT22;39886;47.984;-1.586;2022-09-09T03:38:53;23.00;63.50
53978;DHT22;39886;47.984;-1.586;2022-09-09T03:41:21;23.00;63.50
53978;DHT22;39886;47.984;-1.586;2022-09-09T03:43:50;23.00;63.50
53978;DHT22;39886;47.984;-1.586;2022-09-09T03:46:17;23.00;63.50
53978;DHT22;39886;47.984;-1.586;2022-09-09T03:48:43;23.00;63.50
53978;DHT22;39886;47.984;-1.586;2022-09-09T03:51:09;23.00;63.50
53978;DHT22;39886;47.984;-1.586;2022-09-09T03:53:36;23.00;63.50
53978;DHT22;39886;47.984;-1.586;2022-09-09T03:56:03;23.00;63.50
53978;DHT22;39886;47.984;-1.586;2022-09-09T03:58:29;23.00;63.50
53978;DHT22;39886;47.984;-1.586;2022-09-09T04:01:09;23.00;63.60
53978;DHT22;39886;47.984;-1.586;2022-09-09T04:03:35;23.00;63.50
53978;DHT22;39886;47.984;-1.586;2022-09-09T04:06:03;23.00;63.60
53978;DHT22;39886;47.984;-1.586;2022-09-09T04:08:30;23.00;63.60
53978;DHT22;39886;47.984;-1.586;2022-09-09T04:11:00;23.00;63.60
53978;DHT22;39886;47.984;-1.586;2022-09-09T04:13:27;23.00;63.60
53978;DHT22;39886;47.984;-1.586;2022-09-09T04:15:55;23.00;63.60
53978;DHT22;39886;47.984;-1.586;2022-09-09T04:18:22;23.00;63.60
53978;DHT22;39886;47.984;-1.586;2022-09-09T04:20:50;23.00;63.60
53978;DHT22;39886;47.984;-1.586;2022-09-09T04:23:17;23.00;63.60
53978;DHT22;39886;47.984;-1.586;2022-09-09T04:25:51;23.00;63.60
53978;DHT22;39886;47.984;-1.586;2022-09-09T04:28:18;23.00;63.60
53978;DHT22;39886;47.984;-1.586;2022-09-09T04:30:45;23.00;63.60
53978;DHT22;39886;47.984;-1.586;2022-09-09T04:33:12;23.00;63.60
53978;DHT22;39886;47.984;-1.586;2022-09-09T04:35:39;23.00;63.60
53978;DHT22;39886;47.984;-1.586;2022-09-09T04:38:09;23.00;63.60
53978;DHT22;39886;47.984;-1.586;2022-09-09T04:40:35;23.00;63.60
53978;DHT22;39886;47.984;-1.586;2022-09-09T04:43:02;23.00;63.60
53978;DHT22;39886;47.984;-1.586;2022-09-09T04:45:31;23.00;63.60
53978;DHT22;39886;47.984;-1.586;2022-09-09T04:47:57;23.00;63.60
53978;DHT22;39886;47.984;-1.586;2022-09-09T04:50:22;23.00;63.60
53978;DHT22;39886;47.984;-1.586;2022-09-09T04:52:48;23.00;63.70
53978;DHT22;39886;47.984;-1.586;2022-09-09T04:55:14;23.00;63.60
53978;DHT22;39886;47.984;-1.586;2022-09-09T04:57:40;23.00;63.60
53978;DHT22;39886;47.984;-1.586;2022-09-09T05:00:07;23.00;63.60
53978;DHT22;39886;47.984;-1.586;2022-09-09T05:02:37;22.90;63.60
53978;DHT22;39886;47.984;-1.586;2022-09-09T05:05:04;23.00;63.60
53978;DHT22;39886;47.984;-1.586;2022-09-09T05:07:30;22.90;63.60
53978;DHT22;39886;47.984;-1.586;2022-09-09T05:09:56;22.90;64.30
53978;DHT22;39886;47.984;-1.586;2022-09-09T05:12:23;22.90;63.60
53978;DHT22;39886;47.984;-1.586;2022-09-09T05:14:51;22.90;63.60
53978;DHT22;39886;47.984;-1.586;2022-09-09T05:17:17;22.90;63.60
53978;DHT22;39886;47.984;-1.586;2022-09-09T05:19:43;22.90;63.60
53978;DHT22;39886;47.984;-1.586;2022-09-09T05:22:10;22.90;63.70
53978;DHT22;39886;47.984;-1.586;2022-09-09T05:24:37;22.90;63.60
53978;DHT22;39886;47.984;-1.586;2022-09-09T05:27:04;22.90;63.70
53978;DHT22;39886;47.984;-1.586;2022-09-09T05:29:31;22.90;63.60
53978;DHT22;39886;47.984;-1.586;2022-09-09T05:31:59;22.90;63.60
53978;DHT22;39886;47.984;-1.586;2022-09-09T05:34:25;22.90;63.70
53978;DHT22;39886;47.984;-1.586;2022-09-09T05:36:51;22.90;63.60
53978;DHT22;39886;47.984;-1.586;2022-09-09T05:39:17;22.90;63.70
53978;DHT22;39886;47.984;-1.586;2022-09-09T05:41:43;22.90;63.70
53978;DHT22;39886;47.984;-1.586;2022-09-09T05:44:09;22.90;63.70
53978;DHT22;39886;47.984;-1.586;2022-09-09T05:46:35;22.90;63.70
53978;DHT22;39886;47.984;-1.586;2022-09-09T05:49:02;22.90;63.70
53978;DHT22;39886;47.984;-1.586;2022-09-09T05:51:29;22.90;63.70
53978;DHT22;39886;47.984;-1.586;2022-09-09T05:53:58;22.90;63.70
53978;DHT22;39886;47.984;-1.586;2022-09-09T05:56:26;22.90;63.70
53978;DHT22;39886;47.984;-1.586;2022-09-09T05:58:53;22.90;63.70
53978;DHT22;39886;47.984;-1.586;2022-09-09T06:01:27;22.90;63.70
53978;DHT22;39886;47.984;-1.586;2022-09-09T06:03:54;22.90;63.70
53978;DHT22;39886;47.984;-1.586;2022-09-09T06:06:26;22.90;63.70
53978;DHT22;39886;47.984;-1.586;2022-09-09T06:08:54;22.90;63.70
53978;DHT22;39886;47.984;-1.586;2022-09-09T06:11:26;22.90;63.70
53978;DHT22;39886;47.984;-1.586;2022-09-09T06:13:52;22.90;63.70
53978;DHT22;39886;47.984;-1.586;2022-09-09T06:16:24;22.90;63.70
53978;DHT22;39886;47.984;-1.586;2022-09-09T06:18:51;22.90;63.70
53978;DHT22;39886;47.984;-1.586;2022-09-09T06:21:22;22.90;63.70
53978;DHT22;39886;47.984;-1.586;2022-09-09T06:23:48;22.90;63.70
53978;DHT22;39886;47.984;-1.586;2022-09-09T06:28:48;22.90;63.70
53978;DHT22;39886;47.984;-1.586;2022-09-09T06:31:19;22.90;63.70
53978;DHT22;39886;47.984;-1.586;2022-09-09T06:33:50;22.90;63.60
53978;DHT22;39886;47.984;-1.586;2022-09-09T06:36:19;22.90;63.60
53978;DHT22;39886;47.984;-1.586;2022-09-09T06:38:45;22.90;63.50
53978;DHT22;39886;47.984;-1.586;2022-09-09T06:41:12;22.90;63.50
53978;DHT22;39886;47.984;-1.586;2022-09-09T06:43:38;22.90;63.40
53978;DHT22;39886;47.984;-1.586;2022-09-09T06:46:19;22.90;63.40
53978;DHT22;39886;47.984;-1.586;2022-09-09T06:48:45;22.90;63.30
53978;DHT22;39886;47.984;-1.586;2022-09-09T06:51:12;22.90;63.30
53978;DHT22;39886;47.984;-1.586;2022-09-09T06:53:40;22.90;63.20
53978;DHT22;39886;47.984;-1.586;2022-09-09T06:58:47;22.90;63.10
53978;DHT22;39886;47.984;-1.586;2022-09-09T07:01:20;22.90;63.20
53978;DHT22;39886;47.984;-1.586;2022-09-09T07:03:48;22.90;63.30
53978;DHT22;39886;47.984;-1.586;2022-09-09T07:06:24;22.90;63.40
53978;DHT22;39886;47.984;-1.586;2022-09-09T07:08:54;22.90;63.50
53978;DHT22;39886;47.984;-1.586;2022-09-09T07:11:22;22.90;63.40
53978;DHT22;39886;47.984;-1.586;2022-09-09T07:13:49;23.00;63.40
53978;DHT22;39886;47.984;-1.586;2022-09-09T07:16:17;23.00;63.20
53978;DHT22;39886;47.984;-1.586;2022-09-09T07:18:43;23.00;63.20
53978;DHT22;39886;47.984;-1.586;2022-09-09T07:21:11;23.10;62.90
53978;DHT22;39886;47.984;-1.586;2022-09-09T07:23:38;23.20;62.80
53978;DHT22;39886;47.984;-1.586;2022-09-09T07:26:15;23.20;62.70
53978;DHT22;39886;47.984;-1.586;2022-09-09T07:28:42;23.30;62.80
53978;DHT22;39886;47.984;-1.586;2022-09-09T07:31:36;23.20;62.80
53978;DHT22;39886;47.984;-1.586;2022-09-09T07:34:04;23.30;62.70
53978;DHT22;39886;47.984;-1.586;2022-09-09T07:36:32;23.30;62.70
53978;DHT22;39886;47.984;-1.586;2022-09-09T07:39:04;23.40;62.70
53978;DHT22;39886;47.984;-1.586;2022-09-09T07:41:36;23.40;62.70
53978;DHT22;39886;47.984;-1.586;2022-09-09T07:44:10;23.50;62.60
53978;DHT22;39886;47.984;-1.586;2022-09-09T07:46:37;23.50;62.60
53978;DHT22;39886;47.984;-1.586;2022-09-09T07:49:04;23.50;63.10
53978;DHT22;39886;47.984;-1.586;2022-09-09T07:51:33;23.50;62.80
53978;DHT22;39886;47.984;-1.586;2022-09-09T07:54:05;23.50;62.80
53978;DHT22;39886;47.984;-1.586;2022-09-09T07:56:31;23.60;62.50
53978;DHT22;39886;47.984;-1.586;2022-09-09T07:58:58;23.60;62.70
53978;DHT22;39886;47.984;-1.586;2022-09-09T08:01:31;23.60;62.50
53978;DHT22;39886;47.984;-1.586;2022-09-09T08:04:00;23.60;62.70
53978;DHT22;39886;47.984;-1.586;2022-09-09T08:06:28;23.60;62.40
53978;DHT22;39886;47.984;-1.586;2022-09-09T08:08:54;23.70;62.40
53978;DHT22;39886;47.984;-1.586;2022-09-09T08:11:22;23.60;62.60
53978;DHT22;39886;47.984;-1.586;2022-09-09T08:13:49;23.60;62.20
53978;DHT22;39886;47.984;-1.586;2022-09-09T08:16:26;23.60;62.00
53978;DHT22;39886;47.984;-1.586;2022-09-09T08:18:53;23.70;61.90
53978;DHT22;39886;47.984;-1.586;2022-09-09T08:21:25;23.70;62.00
53978;DHT22;39886;47.984;-1.586;2022-09-09T08:23:54;23.80;61.90
53978;DHT22;39886;47.984;-1.586;2022-09-09T08:26:25;23.80;61.90
53978;DHT22;39886;47.984;-1.586;2022-09-09T08:28:52;23.80;61.70
53978;DHT22;39886;47.984;-1.586;2022-09-09T08:31:21;23.80;61.90
53978;DHT22;39886;47.984;-1.586;2022-09-09T08:33:48;23.80;61.60
53978;DHT22;39886;47.984;-1.586;2022-09-09T08:36:19;23.80;61.80
53978;DHT22;39886;47.984;-1.586;2022-09-09T08:38:52;23.80;61.80
53978;DHT22;39886;47.984;-1.586;2022-09-09T08:44:06;23.90;61.30
53978;DHT22;39886;47.984;-1.586;2022-09-09T08:46:48;23.90;61.00
53978;DHT22;39886;47.984;-1.586;2022-09-09T08:52:15;23.90;61.10
53978;DHT22;39886;47.984;-1.586;2022-09-09T08:54:41;23.90;61.70
53978;DHT22;39886;47.984;-1.586;2022-09-09T08:57:14;23.90;60.90
53978;DHT22;39886;47.984;-1.586;2022-09-09T08:59:40;24.00;60.70
53978;DHT22;39886;47.984;-1.586;2022-09-09T09:04:58;24.00;60.80
53978;DHT22;39886;47.984;-1.586;2022-09-09T09:07:32;24.00;60.80
53978;DHT22;39886;47.984;-1.586;2022-09-09T09:10:09;24.10;60.60
53978;DHT22;39886;47.984;-1.586;2022-09-09T09:12:45;24.10;60.90
53978;DHT22;39886;47.984;-1.586;2022-09-09T09:15:21;24.00;60.70
53978;DHT22;39886;47.984;-1.586;2022-09-09T09:17:48;24.10;60.80
53978;DHT22;39886;47.984;-1.586;2022-09-09T09:20:15;24.10;60.50
53978;DHT22;39886;47.984;-1.586;2022-09-09T09:22:49;24.10;60.40
53978;DHT22;39886;47.984;-1.586;2022-09-09T09:25:20;24.20;60.30
53978;DHT22;39886;47.984;-1.586;2022-09-09T09:27:57;24.20;61.30
53978;DHT22;39886;47.984;-1.586;2022-09-09T09:30:31;24.20;60.60
53978;DHT22;39886;47.984;-1.586;2022-09-09T09:33:08;24.20;60.70
53978;DHT22;39886;47.984;-1.586;2022-09-09T09:35:36;24.20;60.70
53978;DHT22;39886;47.984;-1.586;2022-09-09T09:38:23;24.20;60.70
53978;DHT22;39886;47.984;-1.586;2022-09-09T09:40:53;24.30;60.30
53978;DHT22;39886;47.984;-1.586;2022-09-09T09:43:33;24.30;60.30
53978;DHT22;39886;47.984;-1.586;2022-09-09T09:46:00;24.30;60.50
53978;DHT22;39886;47.984;-1.586;2022-09-09T09:48:27;24.30;60.40
53978;DHT22;39886;47.984;-1.586;2022-09-09T09:51:03;24.30;60.30
53978;DHT22;39886;47.984;-1.586;2022-09-09T09:53:33;24.30;60.40
53978;DHT22;39886;47.984;-1.586;2022-09-09T09:56:01;24.30;60.30
53978;DHT22;39886;47.984;-1.586;2022-09-09T09:58:30;24.30;60.20
53978;DHT22;39886;47.984;-1.586;2022-09-09T10:00:57;24.30;59.60
53978;DHT22;39886;47.984;-1.586;2022-09-09T10:03:29;24.40;60.00
53978;DHT22;39886;47.984;-1.586;2022-09-09T10:05:56;24.40;59.90
53978;DHT22;39886;47.984;-1.586;2022-09-09T10:08:24;24.40;60.00
53978;DHT22;39886;47.984;-1.586;2022-09-09T10:17:02;24.40;59.70
53978;DHT22;39886;47.984;-1.586;2022-09-09T10:19:36;24.40;59.70
53978;DHT22;39886;47.984;-1.586;2022-09-09T10:22:17;24.50;59.70
53978;DHT22;39886;47.984;-1.586;2022-09-09T10:30:44;24.50;59.50
53978;DHT22;39886;47.984;-1.586;2022-09-09T10:33:41;24.40;59.60
53978;DHT22;39886;47.984;-1.586;2022-09-09T10:36:18;24.50;59.40
53978;DHT22;39886;47.984;-1.586;2022-09-09T10:38:53;24.50;59.40
53978;DHT22;39886;47.984;-1.586;2022-09-09T10:41:54;24.50;59.30
53978;DHT22;39886;47.984;-1.586;2022-09-09T10:44:28;24.50;60.00
53978;DHT22;39886;47.984;-1.586;2022-09-09T10:50:35;24.50;59.40
53978;DHT22;39886;47.984;-1.586;2022-09-09T10:55:52;24.50;59.40
53978;DHT22;39886;47.984;-1.586;2022-09-09T10:58:50;24.50;59.40
53978;DHT22;39886;47.984;-1.586;2022-09-09T11:01:24;24.50;59.40
53978;DHT22;39886;47.984;-1.586;2022-09-09T11:04:19;24.50;59.40
53978;DHT22;39886;47.984;-1.586;2022-09-09T11:06:51;24.60;59.40
53978;DHT22;39886;47.984;-1.586;2022-09-09T11:09:20;24.60;59.40
53978;DHT22;39886;47.984;-1.586;2022-09-09T11:11:55;24.50;59.50
53978;DHT22;39886;47.984;-1.586;2022-09-09T11:16:56;24.60;59.50
53978;DHT22;39886;47.984;-1.586;2022-09-09T11:21:49;24.60;59.50
53978;DHT22;39886;47.984;-1.586;2022-09-09T11:24:41;24.60;59.50
53978;DHT22;39886;47.984;-1.586;2022-09-09T11:27:22;24.60;59.50
53978;DHT22;39886;47.984;-1.586;2022-09-09T11:32:59;24.60;59.60
53978;DHT22;39886;47.984;-1.586;2022-09-09T11:35:42;24.70;60.50
53978;DHT22;39886;47.984;-1.586;2022-09-09T11:38:27;24.70;59.80
53978;DHT22;39886;47.984;-1.586;2022-09-09T11:41:04;24.70;59.60
53978;DHT22;39886;47.984;-1.586;2022-09-09T11:43:33;24.80;
53978;DHT22;39886;47.984;-1.586;2022-09-09T11:46:05;24.80;59.70
53978;DHT22;39886;47.984;-1.586;2022-09-09T11:48:35;24.80;59.80
53978;DHT22;39886;47.984;-1.586;2022-09-09T11:51:07;24.80;59.70
53978;DHT22;39886;47.984;-1.586;2022-09-09T11:53:35;24.80;59.60
53978;DHT22;39886;47.984;-1.586;2022-09-09T11:56:07;24.80;59.70
53978;DHT22;39886;47.984;-1.586;2022-09-09T11:58:36;24.90;59.80
53978;DHT22;39886;47.984;-1.586;2022-09-09T12:01:16;24.90;59.90
53978;DHT22;39886;47.984;-1.586;2022-09-09T12:04:05;24.90;59.60
53978;DHT22;39886;47.984;-1.586;2022-09-09T12:06:45;24.90;59.60
53978;DHT22;39886;47.984;-1.586;2022-09-09T12:09:38;24.90;59.40
53978;DHT22;39886;47.984;-1.586;2022-09-09T12:12:29;24.90;59.60
53978;DHT22;39886;47.984;-1.586;2022-09-09T12:17:52;25.00;59.80
53978;DHT22;39886;47.984;-1.586;2022-09-09T12:20:36;25.00;59.60
53978;DHT22;39886;47.984;-1.586;2022-09-09T12:25:58;25.10;59.90
53978;DHT22;39886;47.984;-1.586;2022-09-09T12:29:04;25.10;59.90
53978;DHT22;39886;47.984;-1.586;2022-09-09T12:34:41;25.10;59.80
53978;DHT22;39886;47.984;-1.586;2022-09-09T12:37:31;25.20;59.70
53978;DHT22;39886;47.984;-1.586;2022-09-09T12:40:00;25.20;59.90
53978;DHT22;39886;47.984;-1.586;2022-09-09T12:42:28;25.20;60.30
53978;DHT22;39886;47.984;-1.586;2022-09-09T12:47:43;25.30;59.70
53978;DHT22;39886;47.984;-1.586;2022-09-09T12:50:24;25.30;59.40
53978;DHT22;39886;47.984;-1.586;2022-09-09T12:53:01;25.30;59.90
53978;DHT22;39886;47.984;-1.586;2022-09-09T12:55:32;25.30;59.60
53978;DHT22;39886;47.984;-1.586;2022-09-09T12:58:04;25.40;59.60
53978;DHT22;39886;47.984;-1.586;2022-09-09T13:00:32;25.40;59.90
53978;DHT22;39886;47.984;-1.586;2022-09-09T13:03:01;25.40;59.60
53978;DHT22;39886;47.984;-1.586;2022-09-09T13:05:37;25.40;59.30
53978;DHT22;39886;47.984;-1.586;2022-09-09T13:08:08;25.50;59.40
53978;DHT22;39886;47.984;-1.586;2022-09-09T13:10:36;25.60;59.00
53978;DHT22;39886;47.984;-1.586;2022-09-09T13:13:04;25.50;59.20
53978;DHT22;39886;47.984;-1.586;2022-09-09T13:15:31;25.50;59.60
53978;DHT22;39886;47.984;-1.586;2022-09-09T13:18:06;25.40;59.50
53978;DHT22;39886;47.984;-1.586;2022-09-09T13:20:33;25.40;59.40
53978;DHT22;39886;47.984;-1.586;2022-09-09T13:22:59;25.40;59.10
53978;DHT22;39886;47.984;-1.586;2022-09-09T13:25:27;25.60;58.60
53978;DHT22;39886;47.984;-1.586;2022-09-09T13:28:01;25.60;57.90
53978;DHT22;39886;47.984;-1.586;2022-09-09T13:30:33;25.60;58.20
53978;DHT22;39886;47.984;-1.586;2022-09-09T13:35:52;25.40;58.30
53978;DHT22;39886;47.984;-1.586;2022-09-09T13:38:19;25.40;58.20
53978;DHT22;39886;47.984;-1.586;2022-09-09T13:43:24;25.40;58.10
53978;DHT22;39886;47.984;-1.586;2022-09-09T13:45:59;25.40;57.90
53978;DHT22;39886;47.984;-1.586;2022-09-09T13:48:26;25.40;57.90
53978;DHT22;39886;47.984;-1.586;2022-09-09T13:51:01;25.40;57.90
53978;DHT22;39886;47.984;-1.586;2022-09-09T13:53:27;25.40;57.80
53978;DHT22;39886;47.984;-1.586;2022-09-09T13:55:53;25.40;57.90
53978;DHT22;39886;47.984;-1.586;2022-09-09T13:58:19;25.40;57.90
53978;DHT22;39886;47.984;-1.586;2022-09-09T14:00:45;25.30;57.80
53978;DHT22;39886;47.984;-1.586;2022-09-09T14:03:12;25.30;57.80
53978;DHT22;39886;47.984;-1.586;2022-09-09T14:05:38;25.30;58.10
53978;DHT22;39886;47.984;-1.586;2022-09-09T14:08:05;25.30;58.20
53978;DHT22;39886;47.984;-1.586;2022-09-09T14:10:31;25.30;58.40
53978;DHT22;39886;47.984;-1.586;2022-09-09T14:12:57;25.30;58.50
53978;DHT22;39886;47.984;-1.586;2022-09-09T14:15:23;25.30;59.20
53978;DHT22;39886;47.984;-1.586;2022-09-09T14:17:48;25.30;59.30
53978;DHT22;39886;47.984;-1.586;2022-09-09T14:20:14;25.30;59.50
53978;DHT22;39886;47.984;-1.586;2022-09-09T14:22:41;25.30;59.90
53978;DHT22;39886;47.984;-1.586;2022-09-09T14:25:07;25.30;60.10
53978;DHT22;39886;47.984;-1.586;2022-09-09T14:27:33;25.30;60.10
53978;DHT22;39886;47.984;-1.586;2022-09-09T14:29:59;25.30;60.20
53978;DHT22;39886;47.984;-1.586;2022-09-09T14:32:26;25.30;60.40
53978;DHT22;39886;47.984;-1.586;2022-09-09T14:34:52;25.20;60.40
53978;DHT22;39886;47.984;-1.586;2022-09-09T14:37:18;25.20;60.60
53978;DHT22;39886;47.984;-1.586;2022-09-09T14:39:44;25.20;60.80
53978;DHT22;39886;47.984;-1.586;2022-09-09T14:42:13;25.20;60.70
53978;DHT22;39886;47.984;-1.586;2022-09-09T14:44:39;25.10;60.70
53978;DHT22;39886;47.984;-1.586;2022-09-09T14:47:05;25.10;60.70
53978;DHT22;39886;47.984;-1.586;2022-09-09T14:49:31;25.20;60.80
53978;DHT22;39886;47.984;-1.586;2022-09-09T14:51:57;25.20;60.80
53978;DHT22;39886;47.984;-1.586;2022-09-09T14:54:22;25.20;60.80
53978;DHT22;39886;47.984;-1.586;2022-09-09T14:56:48;25.20;60.80
53978;DHT22;39886;47.984;-1.586;2022-09-09T14:59:14;25.10;60.90
53978;DHT22;39886;47.984;-1.586;2022-09-09T15:01:40;25.10;60.90
53978;DHT22;39886;47.984;-1.586;2022-09-09T15:04:06;25.10;61.00
53978;DHT22;39886;47.984;-1.586;2022-09-09T15:06:34;25.00;60.70
53978;DHT22;39886;47.984;-1.586;2022-09-09T15:09:01;25.10;60.60
53978;DHT22;39886;47.984;-1.586;2022-09-09T15:11:29;25.00;60.30
53978;DHT22;39886;47.984;-1.586;2022-09-09T15:13:59;25.00;60.30
53978;DHT22;39886;47.984;-1.586;2022-09-09T15:16:27;25.00;60.30
53978;DHT22;39886;47.984;-1.586;2022-09-09T15:18:56;25.00;60.00
53978;DHT22;39886;47.984;-1.586;2022-09-09T15:21:24;25.00;60.10
53978;DHT22;39886;47.984;-1.586;2022-09-09T15:23:51;25.00;60.20
53978;DHT22;39886;47.984;-1.586;2022-09-09T15:26:17;24.90;60.00
53978;DHT22;39886;47.984;-1.586;2022-09-09T15:28:45;24.90;60.20
53978;DHT22;39886;47.984;-1.586;2022-09-09T15:31:22;24.90;60.30
53978;DHT22;39886;47.984;-1.586;2022-09-09T15:33:50;24.80;60.30
53978;DHT22;39886;47.984;-1.586;2022-09-09T15:36:22;24.80;60.30
53978;DHT22;39886;47.984;-1.586;2022-09-09T15:38:49;24.80;60.40
53978;DHT22;39886;47.984;-1.586;2022-09-09T15:41:16;24.80;60.30
53978;DHT22;39886;47.984;-1.586;2022-09-09T15:43:46;24.80;60.40
53978;DHT22;39886;47.984;-1.586;2022-09-09T15:46:31;24.80;60.40
53978;DHT22;39886;47.984;-1.586;2022-09-09T15:49:13;24.80;60.40
53978;DHT22;39886;47.984;-1.586;2022-09-09T15:51:44;24.80;60.40
53978;DHT22;39886;47.984;-1.586;2022-09-09T15:54:15;24.70;60.40
53978;DHT22;39886;47.984;-1.586;2022-09-09T15:56:47;24.70;60.40
53978;DHT22;39886;47.984;-1.586;2022-09-09T15:59:14;24.70;60.20
53978;DHT22;39886;47.984;-1.586;2022-09-09T16:01:40;24.70;60.40
53978;DHT22;39886;47.984;-1.586;2022-09-09T16:04:07;24.70;60.50
53978;DHT22;39886;47.984;-1.586;2022-09-09T16:06:34;24.70;60.50
53978;DHT22;39886;47.984;-1.586;2022-09-09T16:09:01;24.60;60.50
53978;DHT22;39886;47.984;-1.586;2022-09-09T16:11:30;24.60;60.50
53978;DHT22;39886;47.984;-1.586;2022-09-09T16:13:56;24.60;60.60
53978;DHT22;39886;47.984;-1.586;2022-09-09T16:16:25;24.60;60.60
53978;DHT22;39886;47.984;-1.586;2022-09-09T16:18:54;24.60;60.60
53978;DHT22;39886;47.984;-1.586;2022-09-09T16:21:30;24.60;60.60
53978;DHT22;39886;47.984;-1.586;2022-09-09T16:23:58;24.60;60.60
53978;DHT22;39886;47.984;-1.586;2022-09-09T16:26:32;24.60;60.60
53978;DHT22;39886;47.984;-1.586;2022-09-09T16:28:59;24.50;60.60
53978;DHT22;39886;47.984;-1.586;2022-09-09T16:31:26;24.50;60.60
53978;DHT22;39886;47.984;-1.586;2022-09-09T16:33:52;24.50;60.70
53978;DHT22;39886;47.984;-1.586;2022-09-09T16:36:25;24.50;60.60
53978;DHT22;39886;47.984;-1.586;2022-09-09T16:38:55;24.50;60.80
53978;DHT22;39886;47.984;-1.586;2022-09-09T16:41:23;24.50;60.70
53978;DHT22;39886;47.984;-1.586;2022-09-09T16:43:53;24.50;60.70
53978;DHT22;39886;47.984;-1.586;2022-09-09T16:46:20;24.50;60.80
53978;DHT22;39886;47.984;-1.586;2022-09-09T16:48:47;24.50;60.90
53978;DHT22;39886;47.984;-1.586;2022-09-09T16:51:18;24.50;60.90
53978;DHT22;39886;47.984;-1.586;2022-09-09T16:53:45;24.50;60.90
53978;DHT22;39886;47.984;-1.586;2022-09-09T16:56:22;24.40;60.90
53978;DHT22;39886;47.984;-1.586;2022-09-09T16:58:53;24.40;60.90
53978;DHT22;39886;47.984;-1.586;2022-09-09T17:01:23;24.30;61.00
53978;DHT22;39886;47.984;-1.586;2022-09-09T17:03:58;24.40;61.00
53978;DHT22;39886;47.984;-1.586;2022-09-09T17:06:24;24.40;61.00
53978;DHT22;39886;47.984;-1.586;2022-09-09T17:08:58;24.40;61.10
53978;DHT22;39886;47.984;-1.586;2022-09-09T17:11:25;24.40;61.20